createdAt,value
2022-11-20T00:02:34.641Z,3.45
2022-11-20T00:05:37.573Z,8.57
2022-11-20T00:08:40.601Z,6.50
2022-11-20T00:11:43.974Z,9.50
2022-11-20T00:14:50.019Z,6.25
2022-11-20T00:17:55.955Z,5.05
2022-11-20T00:21:03.557Z,8.18
2022-11-20T00:24:11.755Z,6.12
2022-11-20T00:30:22.043Z,4.12
2022-11-20T00:33:30.093Z,7.35
2022-11-20T00:36:36.925Z,4.60
2022-11-20T00:39:41.569Z,6.45
2022-11-20T00:42:44.835Z,3.10
2022-11-20T00:45:49.755Z,4.57
2022-11-20T00:48:57.824Z,8.77
2022-11-20T00:52:00.645Z,12.07
2022-11-20T00:55:04.743Z,7.28
2022-11-20T00:58:13.074Z,8.90
2022-11-20T01:01:41.134Z,11.18
2022-11-20T01:04:46.923Z,6.78
2022-11-20T01:07:53.155Z,4.00
2022-11-20T01:11:00.648Z,21.98
2022-11-20T01:14:21.204Z,7.22
2022-11-20T01:17:24.097Z,6.72
2022-11-20T01:20:27.095Z,7.30
2022-11-20T01:23:33.282Z,6.00
2022-11-20T01:26:40.506Z,8.70
2022-11-20T01:29:43.410Z,8.65
2022-11-20T01:32:48.918Z,7.30
2022-11-20T01:35:52.247Z,12.02
2022-11-20T01:39:02.464Z,5.37
2022-11-20T01:42:24.147Z,9.02
2022-11-20T01:46:00.128Z,8.45
2022-11-20T01:49:23.589Z,9.23
2022-11-20T01:52:37.373Z,5.72
2022-11-20T01:55:52.507Z,8.40
2022-11-20T01:58:59.378Z,7.50
2022-11-20T02:02:02.187Z,6.20
2022-11-20T02:05:18.103Z,11.48
2022-11-20T02:08:21.126Z,7.82
2022-11-20T02:11:24.148Z,8.48
2022-11-20T02:14:29.014Z,10.75
2022-11-20T02:17:31.754Z,9.32
2022-11-20T02:20:34.885Z,8.77
2022-11-20T02:23:44.188Z,12.02
2022-11-20T02:27:12.875Z,9.25
2022-11-20T02:30:21.770Z,10.27
2022-11-20T02:33:24.617Z,14.57
2022-11-20T02:36:29.174Z,13.20
2022-11-20T02:39:53.485Z,13.57
2022-11-20T02:43:00.248Z,10.93
2022-11-20T02:46:03.300Z,7.60
2022-11-20T02:49:09.288Z,11.02
2022-11-20T02:52:12.198Z,12.80
2022-11-20T02:55:18.699Z,10.23
2022-11-20T02:58:24.962Z,12.27
2022-11-20T03:01:28.322Z,10.10
2022-11-20T03:04:30.843Z,9.68
2022-11-20T03:07:38.878Z,12.65
2022-11-20T03:10:42.144Z,8.55
2022-11-20T03:13:45.562Z,10.05
2022-11-20T03:16:48.533Z,7.93
2022-11-20T03:19:52.143Z,7.70
2022-11-20T03:22:56.490Z,4.68
2022-11-20T03:26:13.201Z,12.23
2022-11-20T03:29:15.706Z,13.18
2022-11-20T03:32:18.742Z,10.23
2022-11-20T03:35:25.123Z,10.70
2022-11-20T03:38:32.063Z,9.68
2022-11-20T03:41:41.042Z,9.88
2022-11-20T03:44:44.572Z,10.10
2022-11-20T03:47:49.582Z,7.20
2022-11-20T03:51:07.388Z,9.52
2022-11-20T03:54:12.114Z,6.32
2022-11-20T03:57:19.101Z,11.98
2022-11-20T04:00:21.562Z,9.48
2022-11-20T04:03:25.775Z,11.00
2022-11-20T04:06:31.535Z,14.02
2022-11-20T04:09:35.073Z,8.85
2022-11-20T04:12:37.533Z,9.35
2022-11-20T04:15:40.512Z,8.40
2022-11-20T04:18:47.674Z,10.32
2022-11-20T04:21:55.459Z,9.18
2022-11-20T04:25:00.810Z,9.50
2022-11-20T04:28:10.135Z,13.40
2022-11-20T04:31:17.224Z,8.05
2022-11-20T04:34:40.154Z,6.90
2022-11-20T04:37:47.177Z,13.75
2022-11-20T04:40:54.527Z,8.95
2022-11-20T04:44:05.313Z,14.68
2022-11-20T04:47:13.189Z,12.30
2022-11-20T04:50:16.622Z,15.18
2022-11-20T04:53:20.747Z,9.05
2022-11-20T04:56:26.062Z,10.32
2022-11-20T04:59:31.579Z,13.38
2022-11-20T05:02:34.867Z,8.70
2022-11-20T05:05:44.286Z,6.40
2022-11-20T05:08:46.852Z,9.52
2022-11-20T05:11:53.146Z,11.10
2022-11-20T05:14:55.495Z,12.48
2022-11-20T05:17:58.554Z,9.15
2022-11-20T05:21:05.289Z,7.90
2022-11-20T05:27:13.807Z,6.05
2022-11-20T05:30:19.109Z,5.35
2022-11-20T05:33:22.223Z,11.43
2022-11-20T05:36:25.755Z,4.87
2022-11-20T05:39:28.204Z,8.23
2022-11-20T05:42:32.355Z,12.13
2022-11-20T05:45:34.759Z,10.48
2022-11-20T05:48:42.447Z,11.35
2022-11-20T05:51:46.783Z,8.38
2022-11-20T05:54:52.270Z,10.75
2022-11-20T05:57:56.258Z,15.37
2022-11-20T06:01:13.484Z,10.65
2022-11-20T06:04:16.287Z,8.88
2022-11-20T06:07:21.167Z,9.70
2022-11-20T06:10:24.498Z,10.10
2022-11-20T06:13:26.877Z,12.30
2022-11-20T06:16:30.417Z,16.45
2022-11-20T06:19:35.227Z,8.15
2022-11-20T06:22:38.248Z,6.95
2022-11-20T06:25:42.679Z,14.38
2022-11-20T06:28:46.307Z,10.80
2022-11-20T06:31:56.543Z,10.02
2022-11-20T06:35:01.745Z,8.88
2022-11-20T06:38:04.057Z,6.22
2022-11-20T06:41:08.705Z,10.68
2022-11-20T06:44:11.182Z,8.73
2022-11-20T06:47:14.451Z,5.75
2022-11-20T06:50:16.944Z,11.25
2022-11-20T06:53:20.209Z,7.78
2022-11-20T06:56:23.304Z,14.80
2022-11-20T06:59:26.729Z,10.18
2022-11-20T07:02:29.993Z,16.70
2022-11-20T07:05:33.861Z,5.87
2022-11-20T07:08:37.169Z,8.07
2022-11-20T07:11:48.301Z,13.10
2022-11-20T07:14:51.862Z,14.25
2022-11-20T07:17:55.376Z,9.15
2022-11-20T07:21:04.608Z,12.13
2022-11-20T07:24:11.703Z,8.75
2022-11-20T07:27:16.265Z,13.40
2022-11-20T07:30:19.573Z,13.07
2022-11-20T07:33:22.306Z,16.35
2022-11-20T07:36:27.355Z,10.88
2022-11-20T07:39:30.065Z,9.52
2022-11-20T07:42:33.479Z,13.27
2022-11-20T07:45:42.649Z,9.43
2022-11-20T07:51:55.127Z,9.35
2022-11-20T07:54:58.643Z,9.77
2022-11-20T07:58:05.346Z,13.23
2022-11-20T08:01:13.315Z,9.95
2022-11-20T08:04:17.616Z,9.30
2022-11-20T08:07:22.386Z,8.73
2022-11-20T08:10:26.295Z,7.20
2022-11-20T08:13:50.190Z,10.13
2022-11-20T08:17:13.535Z,8.10
2022-11-20T08:20:18.485Z,11.20
2022-11-20T08:23:41.250Z,11.05
2022-11-20T08:26:46.471Z,7.78
2022-11-20T08:29:49.435Z,10.85
2022-11-20T08:32:51.913Z,9.82
2022-11-20T08:36:02.713Z,13.95
2022-11-20T08:39:05.322Z,12.10
2022-11-20T08:42:11.366Z,8.63
2022-11-20T08:45:14.173Z,13.77
2022-11-20T08:48:36.770Z,10.13
2022-11-20T08:51:41.050Z,10.23
2022-11-20T08:54:48.412Z,8.57
2022-11-20T08:57:52.827Z,12.65
2022-11-20T09:00:57.604Z,14.02
2022-11-20T09:04:00.815Z,14.98
2022-11-20T09:07:04.465Z,13.05
2022-11-20T09:10:23.743Z,11.55
2022-11-20T09:13:48.666Z,9.10
2022-11-20T09:16:51.554Z,10.70
2022-11-20T09:19:55.199Z,11.23
2022-11-20T09:22:58.704Z,13.75
2022-11-20T09:26:16.137Z,12.48
2022-11-20T09:29:23.378Z,9.40
2022-11-20T09:32:29.675Z,13.05
2022-11-20T09:35:32.116Z,14.10
2022-11-20T09:38:37.895Z,13.10
2022-11-20T09:42:20.571Z,11.32
2022-11-20T09:45:47.132Z,11.27
2022-11-20T09:49:36.251Z,10.82
2022-11-20T09:53:03.077Z,11.88
2022-11-20T09:56:18.370Z,14.05
2022-11-20T09:59:45.671Z,12.93
2022-11-20T10:03:13.638Z,14.20
2022-11-20T10:06:29.098Z,10.85
2022-11-20T10:09:38.045Z,12.20
2022-11-20T10:13:02.171Z,19.17
2022-11-20T10:16:44.251Z,15.25
2022-11-20T10:20:23.549Z,11.93
2022-11-20T10:23:54.815Z,12.07
2022-11-20T10:27:07.602Z,12.10
2022-11-20T10:30:14.845Z,11.68
2022-11-20T10:33:29.026Z,14.68
2022-11-20T10:36:51.429Z,10.73
2022-11-20T10:40:11.272Z,8.18
2022-11-20T10:43:20.880Z,12.35
2022-11-20T10:46:46.910Z,10.73
2022-11-20T10:50:06.182Z,15.07
2022-11-20T10:53:48.899Z,12.23
2022-11-20T10:56:58.919Z,12.50
2022-11-20T11:00:11.254Z,12.07
2022-11-20T11:03:24.806Z,11.38
2022-11-20T11:06:36.257Z,10.52
2022-11-20T11:09:48.759Z,13.00
2022-11-20T11:12:51.775Z,15.68
2022-11-20T11:15:58.293Z,16.15
2022-11-20T11:19:25.571Z,14.65
2022-11-20T11:23:29.812Z,15.23
2022-11-20T11:26:36.525Z,15.95
2022-11-20T11:29:44.207Z,12.48
2022-11-20T11:32:48.334Z,12.23
2022-11-20T11:36:17.515Z,12.57
2022-11-20T11:39:22.486Z,17.90
2022-11-20T11:42:34.519Z,11.10
2022-11-20T11:45:56.289Z,13.73
2022-11-20T11:49:06.722Z,14.13
2022-11-20T11:52:18.358Z,13.82
2022-11-20T11:55:36.011Z,12.50
2022-11-20T11:58:53.803Z,10.25
2022-11-20T12:02:09.674Z,12.45
2022-11-20T12:05:46.403Z,15.18
2022-11-20T12:08:56.852Z,14.48
2022-11-20T12:12:10.109Z,13.57
2022-11-20T12:15:30.133Z,11.73
2022-11-20T12:18:34.126Z,11.15
2022-11-20T12:22:26.583Z,12.95
2022-11-20T12:25:57.149Z,11.65
2022-11-20T12:29:23.493Z,14.43
2022-11-20T12:33:27.312Z,12.45
2022-11-20T12:37:20.280Z,12.80
2022-11-20T12:40:50.061Z,15.02
2022-11-20T12:44:49.271Z,12.13
2022-11-20T12:48:35.076Z,17.67
2022-11-20T12:52:04.586Z,15.35
2022-11-20T12:55:26.242Z,17.98
2022-11-20T12:59:37.871Z,11.82
2022-11-20T13:03:09.040Z,14.43
2022-11-20T13:06:31.961Z,11.80
2022-11-20T13:10:19.521Z,10.93
2022-11-20T13:13:30.965Z,11.73
2022-11-20T13:17:18.626Z,11.60
2022-11-20T13:20:25.977Z,12.82
2022-11-20T13:24:05.868Z,11.82
2022-11-20T13:27:21.932Z,13.73
2022-11-20T13:30:28.845Z,13.52
2022-11-20T13:34:37.220Z,12.75
2022-11-20T13:37:40.647Z,12.00
2022-11-20T13:41:25.096Z,10.23
2022-11-20T13:44:36.599Z,10.43
2022-11-20T13:47:49.707Z,12.88
2022-11-20T13:51:25.050Z,12.60
2022-11-20T13:54:28.170Z,10.52
2022-11-20T14:01:55.230Z,9.65
2022-11-20T14:05:03.148Z,9.27
2022-11-20T14:08:14.070Z,12.32
2022-11-20T14:11:20.382Z,11.40
2022-11-20T14:14:28.957Z,12.02
2022-11-20T14:17:37.409Z,14.82
2022-11-20T14:21:03.038Z,12.82
2022-11-20T14:24:11.798Z,9.63
2022-11-20T14:27:43.137Z,13.70
2022-11-20T14:30:49.078Z,12.77
2022-11-20T14:33:57.703Z,12.37
2022-11-20T14:37:09.508Z,13.32
2022-11-20T14:40:32.259Z,14.48
2022-11-20T14:43:38.724Z,9.20
2022-11-20T14:46:41.993Z,11.02
2022-11-20T14:49:49.231Z,15.52
2022-11-20T14:53:00.051Z,12.70
2022-11-20T14:56:06.727Z,14.13
2022-11-20T14:59:11.911Z,11.80
2022-11-20T15:02:20.255Z,9.38
2022-11-20T15:05:47.481Z,15.77
2022-11-20T15:08:55.006Z,17.23
2022-11-20T15:12:22.299Z,12.73
2022-11-20T15:15:55.994Z,13.27
2022-11-20T15:18:59.484Z,13.32
2022-11-20T15:22:14.028Z,13.10
2022-11-20T15:25:18.550Z,13.20
2022-11-20T15:28:36.802Z,12.40
2022-11-20T15:31:46.322Z,11.60
2022-11-20T15:34:49.952Z,14.97
2022-11-20T15:38:01.265Z,12.23
2022-11-20T15:41:06.363Z,11.30
2022-11-20T15:44:12.108Z,7.27
2022-11-20T15:47:18.295Z,8.85
2022-11-20T15:50:22.969Z,16.23
2022-11-20T15:53:26.573Z,11.70
2022-11-20T15:56:29.387Z,16.60
2022-11-20T15:59:44.461Z,7.75
2022-11-20T16:02:47.779Z,9.32
2022-11-20T16:05:52.630Z,18.87
2022-11-20T16:08:57.613Z,22.20
2022-11-20T16:12:31.286Z,17.35
2022-11-20T16:15:47.759Z,12.43
2022-11-20T16:18:57.500Z,13.30
2022-11-20T16:22:03.190Z,14.50
2022-11-20T16:25:08.899Z,21.62
2022-11-20T16:28:16.104Z,22.27
2022-11-20T16:31:23.867Z,16.30
2022-11-20T16:34:28.294Z,14.38
2022-11-20T16:37:31.645Z,19.17
2022-11-20T16:40:34.517Z,23.80
2022-11-20T16:43:44.767Z,27.92
2022-11-20T16:46:47.427Z,28.85
2022-11-20T16:50:11.014Z,23.00
2022-11-20T16:53:15.735Z,30.37
2022-11-20T16:56:24.551Z,25.20
2022-11-20T16:59:27.322Z,21.75
2022-11-20T17:02:41.238Z,28.83
2022-11-20T17:05:44.410Z,25.73
2022-11-20T17:08:52.351Z,25.77
2022-11-20T17:11:57.832Z,23.75
2022-11-20T17:15:12.684Z,30.25
2022-11-20T17:18:15.445Z,19.58
2022-11-20T17:21:22.191Z,16.10
2022-11-20T17:24:30.498Z,20.37
2022-11-20T17:28:03.751Z,18.50
2022-11-20T17:31:14.287Z,24.25
2022-11-20T17:34:21.963Z,21.83
2022-11-20T17:37:27.654Z,23.33
2022-11-20T17:40:34.133Z,18.70
2022-11-20T17:43:40.445Z,20.25
2022-11-20T17:46:43.038Z,30.35
2022-11-20T17:49:46.266Z,27.62
2022-11-20T17:52:49.064Z,24.42
2022-11-20T17:56:17.325Z,32.45
2022-11-20T17:59:21.940Z,18.87
2022-11-20T18:02:25.119Z,21.50
2022-11-20T18:05:52.920Z,24.12
2022-11-20T18:08:59.031Z,29.20
2022-11-20T18:12:03.194Z,28.30
2022-11-20T18:15:08.632Z,19.42
2022-11-20T18:18:12.433Z,21.55
2022-11-20T18:21:15.256Z,33.20
2022-11-20T18:24:20.057Z,34.80
2022-11-20T18:27:24.931Z,20.62
2022-11-20T18:30:30.710Z,29.92
2022-11-20T18:33:33.735Z,26.62
2022-11-20T18:36:36.819Z,25.37
2022-11-20T18:39:39.378Z,29.92
2022-11-20T18:43:01.667Z,26.95
2022-11-20T18:46:05.100Z,27.05
2022-11-20T18:49:13.087Z,24.67
2022-11-20T18:52:15.539Z,36.70
2022-11-20T18:55:18.810Z,32.72
2022-11-20T18:58:21.294Z,26.37
2022-11-20T19:01:44.596Z,32.58
2022-11-20T19:04:51.704Z,27.70
2022-11-20T19:08:00.831Z,24.00
2022-11-20T19:11:12.017Z,27.85
2022-11-20T19:14:22.239Z,26.77
2022-11-20T19:17:27.899Z,22.40
2022-11-20T19:20:34.587Z,33.35
2022-11-20T19:23:40.431Z,21.05
2022-11-20T19:27:08.589Z,21.73
2022-11-20T19:30:58.674Z,21.15
2022-11-20T19:34:44.310Z,21.52
2022-11-20T19:37:48.867Z,25.88
2022-11-20T19:40:55.764Z,24.67
2022-11-20T19:44:03.924Z,24.27
2022-11-20T19:47:14.388Z,38.88
2022-11-20T19:50:17.979Z,31.02
2022-11-20T19:53:22.951Z,32.72
2022-11-20T19:56:27.443Z,29.25
2022-11-20T19:59:31.272Z,28.67
2022-11-20T20:02:35.750Z,29.73
2022-11-20T20:05:39.542Z,25.23
2022-11-20T20:08:45.056Z,34.78
2022-11-20T20:11:48.251Z,27.77
2022-11-20T20:14:52.506Z,19.75
2022-11-20T20:17:56.054Z,24.58
2022-11-20T20:21:03.885Z,40.22
2022-11-20T20:24:11.031Z,30.48
2022-11-20T20:27:15.334Z,27.00
2022-11-20T20:30:18.495Z,24.15
2022-11-20T20:33:23.051Z,36.65
2022-11-20T20:36:26.562Z,26.75
2022-11-20T20:39:31.205Z,25.00
2022-11-20T20:42:38.321Z,31.62
2022-11-20T20:45:48.402Z,29.83
2022-11-20T20:48:54.650Z,29.60
2022-11-20T20:52:02.319Z,37.35
2022-11-20T20:55:06.843Z,40.60
2022-11-20T20:58:09.949Z,37.42
2022-11-20T21:01:17.114Z,23.30
2022-11-20T21:04:19.778Z,32.47
2022-11-20T21:07:23.426Z,34.95
2022-11-20T21:10:28.373Z,22.17
2022-11-20T21:13:35.615Z,29.55
2022-11-20T21:16:43.987Z,19.83
2022-11-20T21:19:50.756Z,33.00
2022-11-20T21:22:55.218Z,34.08
2022-11-20T21:26:06.077Z,29.12
2022-11-20T21:29:30.087Z,30.73
2022-11-20T21:32:33.261Z,25.15
2022-11-20T21:35:36.473Z,22.42
2022-11-20T21:38:59.936Z,40.15
2022-11-20T21:42:14.876Z,43.40
2022-11-20T21:46:17.674Z,28.10
2022-11-20T21:49:22.696Z,19.75
2022-11-20T21:52:28.465Z,29.55
2022-11-20T21:55:33.244Z,24.55
2022-11-20T21:58:43.958Z,29.40
2022-11-20T22:02:08.688Z,23.62
2022-11-20T22:05:12.823Z,20.07
2022-11-20T22:08:16.668Z,24.37
2022-11-20T22:11:23.087Z,21.30
2022-11-20T22:14:36.871Z,19.20
2022-11-20T22:18:03.105Z,20.42
2022-11-20T22:24:15.570Z,22.35
2022-11-20T22:27:18.623Z,29.55
2022-11-20T22:30:26.643Z,20.00
2022-11-20T22:33:30.858Z,25.62
2022-11-20T22:36:37.406Z,16.62
2022-11-20T22:39:40.137Z,16.67
2022-11-20T22:42:52.080Z,18.73
2022-11-20T22:46:16.788Z,15.18
2022-11-20T22:49:20.751Z,16.53
2022-11-20T22:52:23.435Z,10.27
2022-11-20T22:55:27.679Z,10.20
2022-11-20T22:58:31.821Z,16.02
2022-11-20T23:01:37.652Z,8.82
2022-11-20T23:04:40.092Z,15.05
2022-11-20T23:07:44.323Z,12.05
2022-11-20T23:10:47.484Z,8.48
2022-11-20T23:13:58.857Z,6.90
2022-11-20T23:17:03.189Z,7.18
2022-11-20T23:20:07.872Z,13.68
2022-11-20T23:23:11.780Z,9.00
2022-11-20T23:26:17.136Z,14.32
2022-11-20T23:29:20.514Z,11.82
2022-11-20T23:32:27.551Z,8.80
2022-11-20T23:35:30.418Z,9.88
2022-11-20T23:38:36.682Z,15.70
2022-11-20T23:41:39.060Z,9.05
2022-11-20T23:44:46.739Z,13.05
2022-11-20T23:47:49.645Z,9.15
2022-11-20T23:50:56.882Z,11.75
2022-11-20T23:54:04.879Z,7.50
2022-11-20T23:57:11.932Z,9.13
